Red Lodge, Montana
Current Conditions -  °F | °C
As of 1:35 AM on Friday 24 Oct 2014 (Local Time) from KPOY Reporting Station
Clear Clear  
Wind Chill: 61°   Ceiling: Unl
Heat Index: 61°   Visibility: 10mi
Dew Point: 25°   Wind: 23mph
Humidity: 25%   Direction: 250°WSW
Pressure: 29.94"   Gusts: 37mph
Location:  45.19°N, 109.25°W
Report Text: KPOY 240735Z AUTO 25020G32KT 10SM CLR 16/M04 A2994 RMK AO2
Loading
Personal Weather Stations






























Interactive Weather Map
Tropical Storm Tracking
New forecast layout! Learn more

10-Day Weather Forecast

Advertisements
Track Severe Weather on mobile